Time;durP1;ratioP1;P1;durP2;ratioP2;P2;SDS_P1;SDS_P2;PMS_P1;PMS_P2;Temp;Humidity;BMP_temperature;BMP_pressure;BME280_temperature;BME280_humidity;BME280_pressure;Samples;Min_cycle;Max_cycle;Signal;HPM_P1;HPM_P2
2023/12/06 00:02:06;;;;;;;19.13;11.38;;;7.60;66.60;;;;;;5016109;28;20052;-45
2023/12/06 00:04:33;;;;;;;24.38;11.85;;;7.60;66.60;;;;;;5023538;28;20045;-46
2023/12/06 00:07:00;;;;;;;22.90;11.98;;;7.60;66.60;;;;;;5023576;28;20053;-46
2023/12/06 00:09:28;;;;;;;28.08;12.13;;;7.60;66.60;;;;;;5021009;28;20054;-44
2023/12/06 00:11:56;;;;;;;27.80;12.05;;;7.60;66.50;;;;;;5013684;28;20422;-43
2023/12/06 00:14:23;;;;;;;28.13;13.15;;;7.60;66.40;;;;;;5024455;28;20047;-43
2023/12/06 00:16:50;;;;;;;22.45;12.18;;;7.60;66.40;;;;;;5014680;28;20499;-45
2023/12/06 00:19:18;;;;;;;26.77;12.30;;;7.60;66.50;;;;;;5016413;28;20060;-42
2023/12/06 00:21:45;;;;;;;26.40;12.80;;;7.60;66.50;;;;;;5018018;28;20414;-45
2023/12/06 00:24:12;;;;;;;41.20;13.40;;;7.60;66.40;;;;;;5011793;28;20042;-44
2023/12/06 00:26:42;;;;;;;35.83;14.32;;;7.60;66.50;;;;;;5014083;28;20394;-44
2023/12/06 00:29:10;;;;;;;107.22;13.88;;;7.60;66.60;;;;;;5022281;28;20522;-45
2023/12/06 00:31:38;;;;;;;67.53;14.70;;;7.60;66.60;;;;;;5021050;28;20053;-44
2023/12/06 00:34:05;;;;;;;151.95;14.93;;;7.60;66.60;;;;;;5023786;28;20072;-44
2023/12/06 00:36:33;;;;;;;71.18;15.63;;;7.60;66.60;;;;;;5022133;28;20057;-42
2023/12/06 00:39:01;;;;;;;170.13;18.13;;;7.60;66.60;;;;;;5021924;28;20061;-46
2023/12/06 00:41:28;;;;;;;273.42;19.98;;;7.60;66.60;;;;;;5023674;28;20062;-45
2023/12/06 00:43:55;;;;;;;241.38;19.45;;;7.60;66.60;;;;;;5018744;28;20045;-43
2023/12/06 00:46:25;;;;;;;78.00;14.55;;;7.60;66.50;;;;;;5015752;28;20068;-43
2023/12/06 00:48:52;;;;;;;239.25;19.08;;;7.60;66.50;;;;;;5016302;28;20049;-43
2023/12/06 00:51:20;;;;;;;162.93;19.00;;;7.50;66.50;;;;;;5017831;28;20768;-44
2023/12/06 00:53:48;;;;;;;73.53;16.88;;;7.50;66.50;;;;;;5015419;28;20065;-42
2023/12/06 00:56:15;;;;;;;102.15;16.45;;;7.50;66.50;;;;;;5019145;28;20101;-43
2023/12/06 00:58:43;;;;;;;30.05;15.25;;;7.50;66.50;;;;;;5010990;28;20050;-43
2023/12/06 01:01:11;;;;;;;29.88;14.68;;;7.40;66.40;;;;;;5016337;28;20537;-43
2023/12/06 01:03:41;;;;;;;32.95;15.75;;;7.40;66.70;;;;;;5016322;28;20553;-44
2023/12/06 01:06:09;;;;;;;36.58;17.08;;;7.50;66.90;;;;;;5013787;28;20046;-43
2023/12/06 01:08:36;;;;;;;32.22;17.92;;;7.50;66.90;;;;;;5018862;28;20717;-45
2023/12/06 01:11:04;;;;;;;35.30;17.02;;;7.40;66.60;;;;;;5021555;28;20049;-44
2023/12/06 01:13:31;;;;;;;27.70;14.65;;;7.40;66.60;;;;;;5015380;28;20050;-45
2023/12/06 01:15:58;;;;;;;29.45;14.38;;;7.40;66.60;;;;;;5013746;28;20060;-45
2023/12/06 01:18:25;;;;;;;26.98;13.15;;;7.40;66.60;;;;;;5017210;28;20577;-44
2023/12/06 01:20:54;;;;;;;21.95;11.85;;;7.50;66.50;;;;;;5020677;28;20046;-43
2023/12/06 01:23:21;;;;;;;20.45;10.82;;;7.40;66.30;;;;;;5023553;28;20041;-44
2023/12/06 01:25:48;;;;;;;21.40;11.20;;;7.40;66.20;;;;;;5016503;28;20046;-43
2023/12/06 01:28:15;;;;;;;22.23;10.50;;;7.40;66.10;;;;;;5015808;28;20085;-41
2023/12/06 01:30:43;;;;;;;20.42;10.88;;;7.40;66.00;;;;;;5016279;28;20060;-42
2023/12/06 01:33:10;;;;;;;20.80;11.02;;;7.40;65.90;;;;;;5018712;28;20057;-39
2023/12/06 01:35:37;;;;;;;25.42;13.23;;;7.40;65.90;;;;;;5020054;28;20045;-42
2023/12/06 01:38:06;;;;;;;23.30;12.35;;;7.30;65.80;;;;;;5015170;28;20521;-42
2023/12/06 01:40:36;;;;;;;26.23;13.60;;;7.30;65.70;;;;;;5022166;28;20060;-41
2023/12/06 01:43:03;;;;;;;27.88;14.35;;;7.30;65.70;;;;;;5018888;28;20062;-40
2023/12/06 01:45:30;;;;;;;25.48;13.85;;;7.30;65.70;;;;;;5011879;28;20053;-42
2023/12/06 01:47:58;;;;;;;24.27;13.70;;;7.30;65.70;;;;;;5019427;28;20051;-44
2023/12/06 01:50:27;;;;;;;24.42;13.20;;;7.30;65.70;;;;;;5017460;28;20084;-45
2023/12/06 01:52:58;;;;;;;21.70;11.70;;;7.30;65.80;;;;;;5020811;28;20138;-44
2023/12/06 01:55:27;;;;;;;18.63;10.77;;;7.30;65.60;;;;;;5014948;28;20623;-43
2023/12/06 01:57:55;;;;;;;22.77;10.45;;;7.20;65.40;;;;;;5023657;28;20054;-49
2023/12/06 02:00:22;;;;;;;18.05;10.02;;;7.20;65.40;;;;;;5020546;28;20045;-42
2023/12/06 02:02:49;;;;;;;18.88;10.23;;;7.10;64.90;;;;;;5019337;28;20060;-47
2023/12/06 02:05:17;;;;;;;16.65;9.10;;;7.10;64.80;;;;;;5020029;28;20049;-42
2023/12/06 02:07:45;;;;;;;18.70;9.85;;;7.00;64.80;;;;;;5024638;28;20053;-42
2023/12/06 02:10:13;;;;;;;19.30;9.82;;;7.00;64.90;;;;;;5025472;28;20053;-42
2023/12/06 02:12:41;;;;;;;16.02;9.38;;;6.90;64.80;;;;;;5022563;28;20057;-44
2023/12/06 02:15:09;;;;;;;17.50;9.60;;;6.90;65.00;;;;;;5022678;28;20402;-41
2023/12/06 02:17:37;;;;;;;18.10;10.50;;;6.90;65.10;;;;;;5025792;28;20399;-42
2023/12/06 02:20:05;;;;;;;17.02;9.88;;;6.80;64.90;;;;;;5020369;28;20050;-43
2023/12/06 02:22:32;;;;;;;16.70;10.38;;;6.70;64.80;;;;;;5029092;28;20053;-42
2023/12/06 02:25:03;;;;;;;17.70;10.25;;;6.70;64.80;;;;;;5022856;28;20045;-44
2023/12/06 02:27:31;;;;;;;16.90;10.65;;;6.70;65.00;;;;;;5020602;28;20045;-43
2023/12/06 02:29:58;;;;;;;21.90;13.02;;;6.70;65.10;;;;;;5024847;28;20058;-44
2023/12/06 02:32:26;;;;;;;20.90;12.02;;;6.60;64.90;;;;;;5023791;28;20521;-42
2023/12/06 02:34:56;;;;;;;19.40;11.73;;;6.60;65.10;;;;;;5029278;28;20059;-41
2023/12/06 02:37:24;;;;;;;22.50;12.90;;;6.60;65.30;;;;;;5028879;28;20056;-43
2023/12/06 02:39:53;;;;;;;21.77;13.00;;;6.60;65.30;;;;;;5031424;28;20060;-41
2023/12/06 02:42:21;;;;;;;26.27;13.73;;;6.60;65.20;;;;;;5025331;28;20058;-44
2023/12/06 02:44:49;;;;;;;23.38;13.77;;;6.60;65.20;;;;;;5023206;28;20072;-43
2023/12/06 02:47:17;;;;;;;26.50;14.48;;;6.50;65.10;;;;;;5023130;28;20058;-42
2023/12/06 02:49:44;;;;;;;27.83;14.05;;;6.50;65.10;;;;;;5025740;28;20061;-45
2023/12/06 02:52:13;;;;;;;25.23;14.77;;;6.50;65.10;;;;;;5029474;28;20053;-41
2023/12/06 02:54:40;;;;;;;24.30;14.57;;;6.50;65.20;;;;;;5024908;28;20053;-45
2023/12/06 02:57:08;;;;;;;30.88;16.33;;;6.50;65.20;;;;;;5027250;28;20057;-40
2023/12/06 02:59:35;;;;;;;27.33;15.35;;;6.50;65.30;;;;;;5015124;28;20076;-42
2023/12/06 03:02:04;;;;;;;30.75;15.82;;;6.50;65.30;;;;;;5023108;28;20065;-45
2023/12/06 03:04:31;;;;;;;29.52;16.25;;;6.50;65.30;;;;;;5025848;28;20042;-44
2023/12/06 03:06:59;;;;;;;34.55;19.83;;;6.40;65.10;;;;;;5023084;28;20413;-43
2023/12/06 03:09:26;;;;;;;36.88;19.75;;;6.40;64.90;;;;;;5020814;28;20058;-43
2023/12/06 03:11:53;;;;;;;38.25;20.92;;;6.40;64.90;;;;;;5018907;28;20053;-44
2023/12/06 03:15:07;;;;;;;38.63;20.73;;;6.40;64.80;;;;;;5021403;28;20056;-43
2023/12/06 03:17:36;;;;;;;38.25;21.38;;;6.30;64.50;;;;;;5017266;28;20492;-44
2023/12/06 03:20:06;;;;;;;42.72;22.83;;;6.30;64.40;;;;;;5022576;28;20049;-44
2023/12/06 03:22:33;;;;;;;37.38;21.65;;;6.30;64.40;;;;;;5025694;28;20056;-44
2023/12/06 03:25:01;;;;;;;41.03;23.42;;;6.30;64.40;;;;;;5028868;28;20052;-46
2023/12/06 03:27:28;;;;;;;38.38;21.92;;;6.30;64.40;;;;;;5021178;28;20494;-44
2023/12/06 03:29:55;;;;;;;41.95;23.52;;;6.20;64.60;;;;;;5022608;28;20079;-44
2023/12/06 03:32:23;;;;;;;40.53;23.35;;;6.20;64.70;;;;;;5012709;28;20061;-44
2023/12/06 03:34:51;;;;;;;41.10;23.15;;;6.20;64.60;;;;;;5017186;28;20760;-45
2023/12/06 03:37:18;;;;;;;40.67;22.92;;;6.20;64.60;;;;;;5020220;28;20402;-44
2023/12/06 03:39:45;;;;;;;41.72;23.52;;;6.20;64.40;;;;;;5024701;28;20041;-43
2023/12/06 03:42:12;;;;;;;41.47;23.55;;;6.20;64.10;;;;;;5025654;28;20088;-43
2023/12/06 03:44:40;;;;;;;43.25;25.88;;;6.10;64.20;;;;;;5021710;28;20057;-43
2023/12/06 03:47:07;;;;;;;46.10;25.98;;;6.00;64.10;;;;;;5014584;28;20053;-45
2023/12/06 03:49:35;;;;;;;52.80;27.95;;;6.10;64.30;;;;;;5027188;28;20053;-45
2023/12/06 03:52:04;;;;;;;54.42;30.05;;;6.10;64.40;;;;;;5022233;28;20410;-44
2023/12/06 03:54:32;;;;;;;55.67;29.55;;;6.00;64.30;;;;;;5022092;28;20061;-46
2023/12/06 03:56:59;;;;;;;63.90;33.72;;;6.00;64.40;;;;;;5021148;28;20049;-45
2023/12/06 03:59:26;;;;;;;60.75;32.92;;;5.90;64.40;;;;;;5021922;28;20058;-44
2023/12/06 04:01:54;;;;;;;62.88;33.40;;;6.00;64.30;;;;;;5014746;28;20057;-43
2023/12/06 04:04:21;;;;;;;66.47;34.08;;;6.00;64.30;;;;;;5016472;28;20076;-43
2023/12/06 04:06:48;;;;;;;73.47;36.05;;;5.90;64.20;;;;;;5013081;28;20048;-43
2023/12/06 04:09:17;;;;;;;64.45;34.67;;;5.90;64.10;;;;;;5021639;28;20053;-46
2023/12/06 04:11:45;;;;;;;73.82;37.10;;;5.90;64.30;;;;;;5019733;28;20053;-43
2023/12/06 04:14:12;;;;;;;76.65;38.92;;;5.90;64.40;;;;;;5017734;28;20709;-43
2023/12/06 04:16:40;;;;;;;79.72;41.55;;;5.90;64.40;;;;;;5020680;28;20060;-45
2023/12/06 04:19:07;;;;;;;80.35;41.00;;;5.80;64.40;;;;;;5024451;28;20093;-44
2023/12/06 04:21:34;;;;;;;79.10;39.92;;;5.90;64.50;;;;;;5029277;28;20053;-44
2023/12/06 04:24:01;;;;;;;84.45;42.90;;;5.80;64.50;;;;;;5024577;28;20053;-45
2023/12/06 04:26:29;;;;;;;80.03;42.08;;;5.80;64.60;;;;;;5015581;28;20045;-43
2023/12/06 04:28:57;;;;;;;74.28;39.50;;;5.80;64.60;;;;;;5018650;28;20046;-45
2023/12/06 04:31:24;;;;;;;76.60;40.35;;;5.80;64.70;;;;;;5029706;28;20520;-44
2023/12/06 04:33:51;;;;;;;76.90;40.55;;;5.80;64.70;;;;;;5029230;28;20443;-43
2023/12/06 04:36:18;;;;;;;74.85;40.20;;;5.80;64.70;;;;;;5030116;28;20052;-42
2023/12/06 04:38:46;;;;;;;76.40;39.90;;;5.80;64.70;;;;;;5028335;28;20077;-42
2023/12/06 04:41:13;;;;;;;79.07;39.00;;;5.70;64.80;;;;;;5030372;28;20478;-42
2023/12/06 04:43:42;;;;;;;72.18;38.55;;;5.80;64.90;;;;;;5021854;28;20049;-42
2023/12/06 04:46:08;;;;;;;70.85;38.35;;;5.70;64.90;;;;;;5026755;28;20053;-43
2023/12/06 04:48:35;;;;;;;68.75;37.55;;;5.70;65.00;;;;;;5019643;28;20046;-42
2023/12/06 04:51:02;;;;;;;69.70;38.13;;;5.70;65.10;;;;;;5027103;28;20490;-42
2023/12/06 04:53:30;;;;;;;66.00;36.95;;;5.70;65.10;;;;;;5026596;28;20058;-43
2023/12/06 04:55:57;;;;;;;65.03;36.33;;;5.70;65.10;;;;;;5028160;28;20045;-43
2023/12/06 04:58:25;;;;;;;63.28;34.95;;;5.70;65.30;;;;;;5021529;28;20058;-43
2023/12/06 05:00:55;;;;;;;60.10;32.88;;;5.70;65.30;;;;;;5019626;28;20060;-45
2023/12/06 05:03:22;;;;;;;49.75;28.45;;;5.70;65.30;;;;;;5009889;28;20057;-43
2023/12/06 05:05:49;;;;;;;49.85;28.45;;;5.60;65.20;;;;;;5017822;28;20050;-43
2023/12/06 05:08:17;;;;;;;49.42;28.70;;;5.60;65.00;;;;;;5016272;28;20046;-44
2023/12/06 05:10:44;;;;;;;55.58;29.80;;;5.60;65.20;;;;;;5024425;28;20050;-43
2023/12/06 05:13:11;;;;;;;51.95;28.88;;;5.60;65.20;;;;;;5021738;28;20057;-44
2023/12/06 05:15:38;;;;;;;51.10;28.08;;;5.60;65.20;;;;;;5027316;28;20056;-44
2023/12/06 05:18:07;;;;;;;50.30;29.17;;;5.60;65.20;;;;;;5019965;28;20064;-43
2023/12/06 05:20:34;;;;;;;50.67;29.55;;;5.60;65.20;;;;;;5029058;28;20061;-43
2023/12/06 05:23:02;;;;;;;58.72;32.88;;;5.60;65.20;;;;;;5026236;28;20053;-44
2023/12/06 05:25:29;;;;;;;56.22;32.03;;;5.60;65.20;;;;;;5022794;28;20057;-45
2023/12/06 05:27:56;;;;;;;62.65;33.35;;;5.60;65.30;;;;;;5025711;28;20058;-43
2023/12/06 05:30:24;;;;;;;59.60;31.50;;;5.60;65.40;;;;;;5029425;28;20401;-44
2023/12/06 05:32:51;;;;;;;56.83;30.73;;;5.60;65.50;;;;;;5020352;28;20052;-44
2023/12/06 05:35:20;;;;;;;54.70;30.48;;;5.60;65.60;;;;;;5018840;28;20411;-43
2023/12/06 05:37:47;;;;;;;58.67;32.08;;;5.60;65.60;;;;;;5021843;28;20060;-44
2023/12/06 05:40:15;;;;;;;54.17;31.23;;;5.60;65.60;;;;;;5018815;28;20494;-43
2023/12/06 05:42:42;;;;;;;57.88;32.80;;;5.60;65.60;;;;;;5019329;28;20057;-44
2023/12/06 05:45:10;;;;;;;55.20;30.98;;;5.60;65.70;;;;;;5021350;28;20061;-44
2023/12/06 05:47:37;;;;;;;52.13;30.83;;;5.60;65.60;;;;;;5020890;28;20490;-43
2023/12/06 05:50:06;;;;;;;50.38;28.38;;;5.60;65.60;;;;;;5018588;28;20060;-45
2023/12/06 05:52:34;;;;;;;49.40;29.13;;;5.60;65.70;;;;;;5019125;28;20053;-43
2023/12/06 05:55:02;;;;;;;48.55;27.73;;;5.60;65.60;;;;;;5022487;28;20053;-43
2023/12/06 05:57:29;;;;;;;48.42;26.65;;;5.60;65.60;;;;;;5023974;28;20045;-43
2023/12/06 05:59:57;;;;;;;48.63;27.83;;;5.60;65.70;;;;;;5019041;28;20421;-43
2023/12/06 06:02:24;;;;;;;51.72;26.00;;;5.60;65.80;;;;;;5015515;28;20829;-43
2023/12/06 06:04:51;;;;;;;48.03;26.63;;;5.60;65.80;;;;;;5022479;28;20061;-43
2023/12/06 06:07:18;;;;;;;51.65;28.70;;;5.60;65.80;;;;;;5022646;28;20407;-43
2023/12/06 06:09:47;;;;;;;57.50;29.63;;;5.60;65.80;;;;;;5020093;28;20406;-43
2023/12/06 06:12:14;;;;;;;62.90;33.30;;;5.70;66.00;;;;;;5024819;28;20421;-43
2023/12/06 06:14:41;;;;;;;62.55;33.95;;;5.70;65.90;;;;;;5026663;28;20061;-43
2023/12/06 06:17:08;;;;;;;66.95;34.88;;;5.70;65.90;;;;;;5020709;28;20046;-43
2023/12/06 06:19:36;;;;;;;65.40;33.25;;;5.70;66.00;;;;;;5018086;28;20049;-44
2023/12/06 06:22:03;;;;;;;70.03;35.35;;;5.70;66.00;;;;;;5026741;28;20482;-43
2023/12/06 06:24:30;;;;;;;64.55;34.25;;;5.70;66.10;;;;;;5018135;28;20057;-46
2023/12/06 06:26:59;;;;;;;69.65;35.67;;;5.70;66.20;;;;;;5019157;28;20560;-43
2023/12/06 06:29:27;;;;;;;66.30;34.20;;;5.70;66.20;;;;;;5021725;28;20053;-45
2023/12/06 06:31:55;;;;;;;61.70;33.47;;;5.70;66.30;;;;;;5018399;28;20781;-43
2023/12/06 06:34:22;;;;;;;67.30;32.95;;;5.80;66.40;;;;;;5018957;28;20054;-44
2023/12/06 06:36:49;;;;;;;65.20;34.30;;;5.80;66.40;;;;;;5021580;28;20068;-43
2023/12/06 06:39:17;;;;;;;62.95;34.42;;;5.80;66.50;;;;;;5020124;28;20061;-43
2023/12/06 06:41:44;;;;;;;67.30;34.65;;;5.90;66.50;;;;;;5022271;28;20049;-44
2023/12/06 06:44:12;;;;;;;59.17;32.90;;;5.90;66.50;;;;;;5020996;28;20617;-40
2023/12/06 06:46:39;;;;;;;68.18;35.83;;;5.90;66.50;;;;;;5021060;28;20735;-39
2023/12/06 06:49:07;;;;;;;67.65;35.10;;;5.90;66.60;;;;;;5023311;28;20523;-44
2023/12/06 06:51:35;;;;;;;66.32;35.53;;;5.90;66.60;;;;;;5023554;28;20628;-43
2023/12/06 06:54:02;;;;;;;63.08;34.00;;;5.90;66.60;;;;;;5021745;28;20054;-41
2023/12/06 06:56:29;;;;;;;61.10;33.97;;;5.90;66.60;;;;;;5026451;28;20054;-42
2023/12/06 06:58:58;;;;;;;60.25;34.47;;;6.00;66.60;;;;;;5024677;28;20049;-45
2023/12/06 07:01:27;;;;;;;62.08;33.38;;;6.00;66.70;;;;;;5015564;28;20049;-42
2023/12/06 07:03:54;;;;;;;57.45;32.83;;;6.00;66.70;;;;;;5018887;28;20053;-44
2023/12/06 07:06:21;;;;;;;60.28;33.17;;;6.00;67.40;;;;;;5019782;28;20061;-42
2023/12/06 07:08:49;;;;;;;59.38;34.03;;;6.00;66.70;;;;;;5018646;28;20386;-45
2023/12/06 07:11:17;;;;;;;57.47;33.05;;;6.00;66.70;;;;;;5022542;28;20053;-39
2023/12/06 07:13:44;;;;;;;54.33;31.77;;;6.10;66.80;;;;;;5016634;28;20060;-44
2023/12/06 07:16:11;;;;;;;55.85;32.40;;;6.10;66.80;;;;;;5018867;28;20494;-40
2023/12/06 07:18:40;;;;;;;55.72;31.52;;;6.10;66.70;;;;;;5021903;28;20053;-47
2023/12/06 07:21:08;;;;;;;52.75;31.85;;;6.10;66.70;;;;;;5019781;28;20076;-39
2023/12/06 07:23:35;;;;;;;54.30;31.35;;;6.10;66.70;;;;;;5018030;28;20533;-43
2023/12/06 07:26:03;;;;;;;49.92;30.10;;;6.10;66.70;;;;;;5021196;28;20056;-42
2023/12/06 07:28:30;;;;;;;51.42;31.55;;;6.20;66.80;;;;;;5020135;28;20057;-43
2023/12/06 07:30:57;;;;;;;56.08;33.40;;;6.20;66.80;;;;;;5026311;28;20057;-42
2023/12/06 07:33:26;;;;;;;55.65;33.40;;;6.10;66.70;;;;;;5014276;28;20608;-41
2023/12/06 07:35:55;;;;;;;54.72;32.83;;;6.20;66.80;;;;;;5015020;28;21135;-41
2023/12/06 07:38:22;;;;;;;51.03;31.88;;;6.20;66.80;;;;;;5019781;28;20064;-40
2023/12/06 07:40:50;;;;;;;52.13;31.45;;;6.20;66.90;;;;;;5022532;28;20053;-45
2023/12/06 07:43:17;;;;;;;50.17;31.08;;;6.20;66.90;;;;;;5018975;28;20057;-43
2023/12/06 07:45:45;;;;;;;54.33;32.55;;;6.20;66.90;;;;;;5018899;28;20053;-39
2023/12/06 07:48:12;;;;;;;50.20;31.50;;;6.20;66.90;;;;;;5018093;28;20052;-36
2023/12/06 07:50:39;;;;;;;52.80;33.03;;;6.20;66.80;;;;;;5019339;28;20050;-41
2023/12/06 07:53:08;;;;;;;52.20;31.55;;;6.30;67.40;;;;;;5020875;28;20068;-41
2023/12/06 07:55:35;;;;;;;50.47;31.73;;;6.30;66.90;;;;;;5020085;28;20064;-42
2023/12/06 07:58:03;;;;;;;49.92;31.85;;;6.30;66.90;;;;;;5019704;28;20405;-42
2023/12/06 08:00:30;;;;;;;55.63;34.10;;;6.30;66.90;;;;;;5022483;28;20064;-41
2023/12/06 08:02:57;;;;;;;54.60;31.48;;;6.30;66.90;;;;;;5024143;28;20056;-42
2023/12/06 08:05:24;;;;;;;56.60;32.05;;;6.30;66.90;;;;;;5021921;28;20049;-41
2023/12/06 08:07:52;;;;;;;53.53;32.20;;;6.30;67.00;;;;;;5021844;28;20414;-39
2023/12/06 08:10:22;;;;;;;52.55;30.48;;;6.40;67.10;;;;;;5023220;28;20053;-43
2023/12/06 08:12:50;;;;;;;49.75;30.08;;;6.40;66.90;;;;;;5018757;28;20057;-43
2023/12/06 08:15:17;;;;;;;53.90;32.42;;;6.40;66.90;;;;;;5017045;28;20421;-39
2023/12/06 08:17:44;;;;;;;48.00;31.27;;;6.40;66.90;;;;;;5016870;28;20049;-42
2023/12/06 08:20:12;;;;;;;49.50;30.00;;;6.40;66.90;;;;;;5018403;28;20060;-43
2023/12/06 08:22:39;;;;;;;50.88;30.63;;;6.50;67.00;;;;;;5016341;28;20083;-46
2023/12/06 08:25:06;;;;;;;52.75;32.33;;;6.40;67.00;;;;;;5016768;28;20520;-41
2023/12/06 08:27:35;;;;;;;49.00;29.85;;;6.50;67.00;;;;;;5020819;28;20485;-41
2023/12/06 08:30:03;;;;;;;48.88;30.33;;;6.60;66.90;;;;;;5014820;28;20067;-42
2023/12/06 08:32:31;;;;;;;45.53;27.77;;;6.60;66.90;;;;;;5015946;28;20058;-44
2023/12/06 08:35:01;;;;;;;47.38;28.70;;;6.60;66.80;;;;;;5018422;28;20060;-42
2023/12/06 08:37:28;;;;;;;52.28;30.88;;;6.60;66.90;;;;;;5016876;28;20045;-43
2023/12/06 08:39:55;;;;;;;45.67;28.48;;;6.60;66.90;;;;;;5017946;28;20497;-44
2023/12/06 08:42:23;;;;;;;47.90;29.27;;;6.60;66.90;;;;;;5019629;28;20061;-41
2023/12/06 08:44:54;;;;;;;47.58;29.40;;;6.60;66.90;;;;;;5014621;28;20080;-45
2023/12/06 08:47:21;;;;;;;44.22;27.95;;;6.60;66.90;;;;;;5015780;28;20671;-40
2023/12/06 08:49:49;;;;;;;48.22;29.88;;;6.70;67.00;;;;;;5020032;28;20057;-44
2023/12/06 08:52:16;;;;;;;49.72;31.25;;;6.70;67.00;;;;;;5019320;28;20073;-45
2023/12/06 08:54:43;;;;;;;47.58;30.00;;;6.70;67.00;;;;;;5020218;28;20413;-40
2023/12/06 08:57:11;;;;;;;48.22;28.60;;;6.70;67.00;;;;;;5017392;28;20068;-41
2023/12/06 08:59:39;;;;;;;49.35;30.05;;;6.70;67.10;;;;;;5016172;28;20064;-43
2023/12/06 09:02:08;;;;;;;48.10;29.58;;;6.70;67.00;;;;;;5020979;28;20050;-44
2023/12/06 09:04:35;;;;;;;53.58;29.75;;;6.80;67.10;;;;;;5015341;28;20059;-43
2023/12/06 09:07:03;;;;;;;51.20;29.25;;;6.80;67.10;;;;;;5019677;28;20452;-43
2023/12/06 09:09:30;;;;;;;48.28;30.80;;;6.70;67.00;;;;;;5018074;28;20069;-43
2023/12/06 09:11:58;;;;;;;53.03;29.58;;;6.80;67.10;;;;;;5020094;28;20049;-45
2023/12/06 09:14:26;;;;;;;52.90;29.20;;;6.80;67.00;;;;;;5019138;28;20065;-44
2023/12/06 09:16:53;;;;;;;56.90;30.13;;;6.80;67.00;;;;;;5011339;28;20049;-45
2023/12/06 09:19:22;;;;;;;47.72;28.38;;;6.90;67.20;;;;;;5017808;28;20045;-44
2023/12/06 09:21:49;;;;;;;49.00;28.75;;;6.80;67.20;;;;;;5024786;28;20425;-42
2023/12/06 09:24:16;;;;;;;50.38;29.58;;;6.80;67.20;;;;;;5019085;28;20060;-43
2023/12/06 09:26:44;;;;;;;51.42;30.33;;;6.90;67.30;;;;;;5017970;28;20071;-44
2023/12/06 09:29:11;;;;;;;48.38;30.13;;;6.90;67.30;;;;;;5018223;28;20049;-45
2023/12/06 09:31:39;;;;;;;53.40;29.75;;;6.90;67.20;;;;;;5015801;28;20063;-43
2023/12/06 09:34:07;;;;;;;53.97;30.95;;;6.90;67.30;;;;;;5013205;28;20057;-43
2023/12/06 09:36:35;;;;;;;50.50;29.73;;;6.90;67.30;;;;;;5020576;28;20457;-43
2023/12/06 09:39:04;;;;;;;44.97;27.25;;;6.90;67.20;;;;;;5022667;28;20075;-43
2023/12/06 09:41:33;;;;;;;46.60;29.30;;;6.90;67.20;;;;;;5020532;28;20649;-44
2023/12/06 09:44:01;;;;;;;50.35;30.17;;;6.90;67.30;;;;;;5025969;28;20064;-42
2023/12/06 09:46:28;;;;;;;47.30;28.52;;;7.00;67.40;;;;;;5028328;28;20068;-43
2023/12/06 09:48:56;;;;;;;52.65;29.08;;;7.00;67.40;;;;;;5017641;28;20045;-43
2023/12/06 09:51:23;;;;;;;47.33;28.92;;;7.00;67.40;;;;;;5027430;28;20429;-43
2023/12/06 09:53:52;;;;;;;51.83;30.75;;;7.00;67.40;;;;;;5023920;28;20068;-43
2023/12/06 09:56:19;;;;;;;46.55;28.63;;;7.00;67.40;;;;;;5028326;28;20525;-43
2023/12/06 09:58:47;;;;;;;49.83;29.80;;;7.10;67.50;;;;;;5024738;28;20057;-44
2023/12/06 10:01:14;;;;;;;50.42;29.00;;;7.10;67.50;;;;;;5019179;28;20521;-44
2023/12/06 10:03:41;;;;;;;56.47;30.17;;;7.10;67.50;;;;;;5018478;28;20057;-43
2023/12/06 10:06:09;;;;;;;50.17;28.45;;;7.10;67.60;;;;;;5018999;28;20045;-46
2023/12/06 10:08:36;;;;;;;48.08;29.52;;;7.10;67.70;;;;;;5023122;28;20045;-42
2023/12/06 10:11:06;;;;;;;49.20;27.25;;;7.10;67.60;;;;;;5029274;28;20481;-44
2023/12/06 10:13:35;;;;;;;44.67;27.40;;;7.10;67.70;;;;;;5021459;28;20057;-43
2023/12/06 10:16:03;;;;;;;42.83;26.67;;;7.10;67.60;;;;;;5028725;28;20061;-44
2023/12/06 10:18:32;;;;;;;42.75;26.65;;;7.10;67.60;;;;;;5024708;28;20049;-43
2023/12/06 10:20:59;;;;;;;45.28;27.83;;;7.20;67.70;;;;;;5028981;28;20061;-44
2023/12/06 10:23:29;;;;;;;44.70;27.80;;;7.20;67.70;;;;;;5032201;28;20064;-43
2023/12/06 10:25:56;;;;;;;45.78;27.50;;;7.20;67.70;;;;;;5026781;28;20422;-44
2023/12/06 10:28:25;;;;;;;47.42;27.55;;;7.20;67.70;;;;;;5021594;28;20068;-43
2023/12/06 10:31:00;;;;;;;47.42;27.95;;;7.20;67.90;;;;;;5023280;28;20049;-42
2023/12/06 10:33:29;;;;;;;46.88;27.08;;;7.30;67.90;;;;;;5023008;28;20057;-44
2023/12/06 10:35:57;;;;;;;44.78;26.52;;;7.30;67.80;;;;;;5023417;28;20045;-43
2023/12/06 10:38:25;;;;;;;39.75;25.50;;;7.30;67.80;;;;;;5023768;28;20065;-43
2023/12/06 10:40:53;;;;;;;41.50;26.48;;;7.30;67.90;;;;;;5014888;28;20054;-42
2023/12/06 10:43:23;;;;;;;46.20;26.63;;;7.30;67.90;;;;;;5022229;28;20049;-43
2023/12/06 10:45:53;;;;;;;42.83;26.73;;;7.30;67.90;;;;;;5020634;28;20050;-43
2023/12/06 10:48:23;;;;;;;40.47;24.63;;;7.40;67.90;;;;;;5018863;28;20506;-43
2023/12/06 10:50:51;;;;;;;42.13;26.77;;;7.40;67.90;;;;;;5028653;28;20065;-43
2023/12/06 10:53:20;;;;;;;45.90;27.38;;;7.40;67.90;;;;;;5019263;28;20045;-43
2023/12/06 10:55:48;;;;;;;42.10;25.38;;;7.40;67.80;;;;;;5016815;28;20422;-42
2023/12/06 10:58:18;;;;;;;39.38;25.88;;;7.50;67.80;;;;;;5024026;28;20045;-44
2023/12/06 11:00:46;;;;;;;38.17;24.08;;;7.50;67.80;;;;;;5020392;28;20058;-45
2023/12/06 11:03:15;;;;;;;43.92;26.23;;;7.50;67.70;;;;;;5023118;28;20368;-45
2023/12/06 11:05:46;;;;;;;42.28;24.48;;;7.50;67.60;;;;;;5025393;28;20045;-43
2023/12/06 11:08:39;;;;;;;38.63;24.88;;;7.50;67.60;;;;;;5023436;28;20052;-43
2023/12/06 11:11:22;;;;;;;46.47;25.17;;;7.50;67.60;;;;;;5009519;28;20053;-43
2023/12/06 11:14:00;;;;;;;40.72;24.05;;;7.60;67.70;;;;;;5024683;28;20061;-43
2023/12/06 11:16:42;;;;;;;40.55;24.30;;;7.60;67.70;;;;;;5019404;28;20497;-43
2023/12/06 11:19:12;;;;;;;41.28;26.35;;;7.60;67.80;;;;;;5019805;28;20050;-47
2023/12/06 11:21:39;;;;;;;45.20;26.23;;;7.60;67.80;;;;;;5023516;28;20422;-40
2023/12/06 11:24:09;;;;;;;43.40;26.10;;;7.60;67.60;;;;;;5026350;28;20049;-44
2023/12/06 11:26:37;;;;;;;48.38;26.30;;;7.60;67.50;;;;;;5017890;28;20068;-44
2023/12/06 11:29:04;;;;;;;40.65;24.88;;;7.60;67.60;;;;;;5027070;28;20041;-46
2023/12/06 11:31:36;;;;;;;47.20;26.60;;;7.60;67.70;;;;;;5019819;28;20058;-41
2023/12/06 11:34:09;;;;;;;46.28;25.50;;;7.60;67.60;;;;;;5018192;28;20076;-42
2023/12/06 11:36:38;;;;;;;39.92;23.55;;;7.70;67.70;;;;;;5019738;28;20518;-42
2023/12/06 11:39:15;;;;;;;42.80;26.42;;;7.70;67.70;;;;;;5021650;28;20057;-43
2023/12/06 11:41:52;;;;;;;41.50;25.10;;;7.70;67.70;;;;;;5019396;28;20073;-43
2023/12/06 11:44:20;;;;;;;43.38;25.20;;;7.70;67.60;;;;;;5022966;28;20056;-42
2023/12/06 11:46:51;;;;;;;41.63;24.58;;;7.70;67.60;;;;;;5024982;28;20053;-43
2023/12/06 11:49:20;;;;;;;41.65;24.63;;;7.70;67.50;;;;;;5019559;28;20054;-46
2023/12/06 11:51:54;;;;;;;40.90;22.33;;;7.70;67.50;;;;;;5021902;28;20049;-42
2023/12/06 11:54:22;;;;;;;36.10;22.77;;;7.70;67.50;;;;;;5022924;28;20053;-45
2023/12/06 11:56:50;;;;;;;38.35;23.27;;;7.70;67.40;;;;;;5021821;28;20509;-44
2023/12/06 11:59:17;;;;;;;45.00;24.55;;;7.80;67.40;;;;;;5018817;28;20050;-45
2023/12/06 12:01:46;;;;;;;44.28;24.08;;;7.80;67.30;;;;;;5015757;28;20662;-41
2023/12/06 12:04:14;;;;;;;38.30;22.10;;;7.80;67.00;;;;;;5019351;28;20045;-44
2023/12/06 12:06:41;;;;;;;46.55;24.90;;;7.80;67.00;;;;;;5015039;28;20064;-44
2023/12/06 12:09:11;;;;;;;36.97;22.65;;;7.70;66.80;;;;;;5022668;28;20053;-43
2023/12/06 12:11:44;;;;;;;36.97;21.10;;;7.70;66.90;;;;;;5018220;28;20053;-43
2023/12/06 12:14:12;;;;;;;35.13;20.85;;;7.80;67.10;;;;;;5017365;28;20057;-45
2023/12/06 12:16:41;;;;;;;38.30;21.55;;;7.80;67.30;;;;;;5028674;28;20062;-44
2023/12/06 12:19:11;;;;;;;42.55;25.20;;;7.80;67.50;;;;;;5019641;28;20049;-45
2023/12/06 12:21:41;;;;;;;41.33;24.70;;;7.80;67.40;;;;;;5021089;28;20678;-47
2023/12/06 12:24:14;;;;;;;42.35;25.88;;;7.90;67.50;;;;;;5033637;28;20052;-44
2023/12/06 12:26:48;;;;;;;42.97;25.65;;;7.90;67.50;;;;;;5025142;28;20050;-41
2023/12/06 12:29:18;;;;;;;46.97;27.25;;;7.90;67.40;;;;;;5020593;28;20045;-45
2023/12/06 12:31:46;;;;;;;38.53;24.08;;;7.90;67.20;;;;;;5020061;28;20053;-43
2023/12/06 12:34:13;;;;;;;42.33;25.75;;;7.90;67.20;;;;;;5026442;28;20482;-43
2023/12/06 12:36:41;;;;;;;43.28;25.92;;;8.00;67.40;;;;;;5028230;28;20073;-45
2023/12/06 12:39:08;;;;;;;46.92;25.85;;;8.00;67.20;;;;;;5024600;28;20057;-45
2023/12/06 12:41:37;;;;;;;43.83;24.45;;;8.00;67.10;;;;;;5024808;28;20079;-44